Codene — E5U2196 — position and weather

sailwx.info

Track history (hours):
 
Tides and Currents Weather Stations Pressure Air Temp Water Temp Dewpoint Dewpoint Depression Visibility Wind Speed Wind Dir Waves Ship Positions

Codene

Last reported at 2016-Jul-18 12:19 UTC. Time now 2016-Aug-29 00:16 UTC.
Position S 27°17' E 153°15'.
Warning: this ship's position is 41 days out of date.

Length 34 m.

Type: Pleasure craft. MMSI: 512151000.

Date/timePositionNaut miles runAvg speedWind from/ knotsBaromVisibWave heightAir tempDewpointWater temp
2016-Jul-18 12:19S 27°17' E 153°15'6 0.4
2016-Jul-17 20:26S 27°21' E 153°11'10 5.2
2016-Jul-17 18:34S 27°15' E 153°19'9 8.7
2016-Jul-17 17:31S 27°06' E 153°21'39 6.2
2016-Jul-17 11:05S 27°45' E 153°31'610.0
2016-Jul-17 10:31S 27°50' E 153°29'  
2016-Jul-15 03:15S 27°58' E 153°25'0 0.0
2016-Jul-13 00:33S 27°58' E 153°25'  
2016-Jul-10 07:24S 27°58' E 153°25'0 0.0
2016-Jul-10 06:30S 27°58' E 153°25'0 0.0
2016-Jul-09 22:33S 27°58' E 153°25'0 0.0
2016-Jul-09 20:30S 27°58' E 153°25'0 0.0
2016-Jul-09 18:30S 27°58' E 153°25'0 0.0
2016-Jul-09 16:33S 27°58' E 153°25'0 0.0
2016-Jul-09 15:33S 27°58' E 153°25'0 0.0
2016-Jul-09 14:33S 27°58' E 153°25'0 0.0
2016-Jul-09 13:27S 27°58' E 153°25'0 0.0
2016-Jul-08 22:16S 27°58' E 153°25'0 0.0
2016-Jul-08 17:10S 27°58' E 153°25'0 0.0
2016-Jul-08 16:16S 27°58' E 153°25'0 0.0
2016-Jul-08 13:25S 27°58' E 153°25'  
Track history (hours):
 
Tides and Currents Weather Stations Pressure Air Temp Water Temp Dewpoint Dewpoint Depression Visibility Wind Speed Wind Dir Waves Ship Positions

Codene

Last reported at 2016-Jul-18 12:19 UTC. Time now 2016-Aug-29 00:17 UTC.
Position S 27°17' E 153°15'.
Warning: this ship's position is 41 days out of date.

Length 34 m.

Type: Pleasure craft. MMSI: 512151000.

Date/timePositionNaut miles runAvg speedWind from/ knotsBaromVisibWave heightAir tempDewpointWater temp
2016-Jul-18 12:19S 27°17' E 153°15'6 0.4
2016-Jul-17 20:26S 27°21' E 153°11'10 5.2
2016-Jul-17 18:34S 27°15' E 153°19'9 8.7
2016-Jul-17 17:31S 27°06' E 153°21'39 6.2
2016-Jul-17 11:05S 27°45' E 153°31'610.0
2016-Jul-17 10:31S 27°50' E 153°29'  
2016-Jul-15 03:15S 27°58' E 153°25'0 0.0
2016-Jul-13 00:33S 27°58' E 153°25'  
2016-Jul-10 07:24S 27°58' E 153°25'0 0.0
2016-Jul-10 06:30S 27°58' E 153°25'0 0.0
2016-Jul-09 22:33S 27°58' E 153°25'0 0.0
2016-Jul-09 20:30S 27°58' E 153°25'0 0.0
2016-Jul-09 18:30S 27°58' E 153°25'0 0.0
2016-Jul-09 16:33S 27°58' E 153°25'0 0.0
2016-Jul-09 15:33S 27°58' E 153°25'0 0.0
2016-Jul-09 14:33S 27°58' E 153°25'0 0.0
2016-Jul-09 13:27S 27°58' E 153°25'0 0.0
2016-Jul-08 22:16S 27°58' E 153°25'0 0.0
2016-Jul-08 17:10S 27°58' E 153°25'0 0.0
2016-Jul-08 16:16S 27°58' E 153°25'0 0.0
2016-Jul-08 13:25S 27°58' E 153°25'  

Dump ship's entire track history